Time;durP1;ratioP1;P1;durP2;ratioP2;P2;SDS_P1;SDS_P2;PMS_P1;PMS_P2;Temp;Humidity;BMP_temperature;BMP_pressure;BME280_temperature;BME280_humidity;BME280_pressure;Samples;Min_cycle;Max_cycle;Signal;HPM_P1;HPM_P2
2022/03/11 00:02:20;;;;;;;;;;;;;;;-6.00;54.32;102641.69;1690515;84;26192;-60
2022/03/11 00:04:47;;;;;;;;;;;;;;;-6.00;54.57;102645.62;1671039;85;27857;-60
2022/03/11 00:07:15;;;;;;;;;;;;;;;-6.01;54.46;102641.23;1671080;86;25919;-60
2022/03/11 00:09:43;;;;;;;;;;;;;;;-6.02;54.59;102651.72;1671220;86;25788;-60
2022/03/11 00:12:12;;;;;;;;;;;;;;;-6.05;54.41;102645.98;1671092;85;25858;-60
2022/03/11 00:14:38;;;;;;;;;;;;;;;-6.04;54.68;102643.81;1671169;85;25657;-61
2022/03/11 00:17:05;;;;;;;;;;;;;;;-6.05;54.62;102650.36;1700945;83;27496;-60
2022/03/11 00:19:32;;;;;;;;;;;;;;;-6.07;54.55;102642.48;1672915;85;25628;-60
2022/03/11 00:21:59;;;;;;;;;;;;;;;-6.07;54.58;102641.59;1686799;85;25764;-60
2022/03/11 00:24:27;;;;;;;;;;;;;;;-6.06;54.36;102648.19;1686887;85;25793;-60
2022/03/11 00:26:54;;;;;;;;;;;;;;;-6.06;54.33;102644.67;1686840;85;25819;-60
2022/03/11 00:29:20;;;;;;;;;;;;;;;-6.09;54.29;102644.20;1686795;85;27503;-60
2022/03/11 00:31:47;;;;;;;;;;;;;;;-6.08;54.43;102639.42;1686753;85;25803;-60
2022/03/11 00:34:14;;;;;;;;;;;;;;;-6.06;54.44;102639.42;1686645;85;25807;-60
2022/03/11 00:36:43;;;;;;;;;;;;;;;-6.07;54.53;102639.87;1686631;85;25799;-59
2022/03/11 00:39:09;;;;;;;;;;;;;;;-6.09;54.81;102636.34;1687037;83;25459;-60
2022/03/11 00:41:36;;;;;;;;;;;;;;;-6.14;54.50;102635.44;1686739;85;27493;-60
2022/03/11 00:44:03;;;;;;;;;;;;;;;-6.19;54.66;102641.93;1696071;83;25716;-60
2022/03/11 00:46:30;;;;;;;;;;;;;;;-6.21;54.58;102637.52;1708363;83;25785;-60
2022/03/11 00:48:57;;;;;;;;;;;;;;;-6.24;54.64;102632.26;1708488;84;25816;-60
2022/03/11 00:51:23;;;;;;;;;;;;;;;-6.27;54.77;102639.63;1708499;84;25680;-60
2022/03/11 00:53:49;;;;;;;;;;;;;;;-6.29;54.89;102633.06;1708213;82;27415;-60
2022/03/11 00:56:16;;;;;;;;;;;;;;;-6.31;54.81;102632.61;1708158;84;25469;-60
2022/03/11 00:58:42;;;;;;;;;;;;;;;-6.32;54.96;102625.16;1693349;82;25614;-60
2022/03/11 01:01:10;;;;;;;;;;;;;;;-6.33;54.80;102628.67;1681149;84;25688;-60
2022/03/11 01:03:36;;;;;;;;;;;;;;;-6.31;54.74;102626.92;1682259;84;25773;-60
2022/03/11 01:06:05;;;;;;;;;;;;;;;-6.29;54.69;102630.45;1682870;85;27465;-60
2022/03/11 01:08:31;;;;;;;;;;;;;;;-6.31;54.72;102626.06;1682457;85;25631;-60
2022/03/11 01:10:58;;;;;;;;;;;;;;;-6.32;54.76;102623.85;1682278;85;25710;-60
2022/03/11 01:13:24;;;;;;;;;;;;;;;-6.31;54.88;102626.06;1682475;85;25816;-60
2022/03/11 01:15:51;;;;;;;;;;;;;;;-6.36;54.83;102626.42;1682879;85;25771;-60
2022/03/11 01:18:17;;;;;;;;;;;;;;;-6.41;54.85;102632.94;1682707;85;27479;-60
2022/03/11 01:20:44;;;;;;;;;;;;;;;-6.44;54.97;102630.28;1682873;85;25429;-60
2022/03/11 01:23:10;;;;;;;;;;;;;;;-6.47;55.07;102631.13;1667846;85;25714;-60
2022/03/11 01:25:37;;;;;;;;;;;;;;;-6.48;55.17;102637.22;1659248;86;25775;-60
2022/03/11 01:28:03;;;;;;;;;;;;;;;-6.49;55.16;102630.63;1649907;86;25811;-60
2022/03/11 01:30:30;;;;;;;;;;;;;;;-6.50;55.18;102635.45;1650270;87;27492;-60
2022/03/11 01:32:57;;;;;;;;;;;;;;;-6.53;55.24;102641.95;1675935;84;25465;-60
2022/03/11 01:35:23;;;;;;;;;;;;;;;-6.54;55.17;102638.43;1681158;85;25829;-60
2022/03/11 01:37:50;;;;;;;;;;;;;;;-6.53;55.16;102638.02;1673998;85;25813;-60
2022/03/11 01:40:16;;;;;;;;;;;;;;;-6.50;55.10;102640.69;1673968;85;25785;-60
2022/03/11 01:42:43;;;;;;;;;;;;;;;-6.53;55.04;102638.02;1654724;85;27470;-60
2022/03/11 01:45:10;;;;;;;;;;;;;;;-6.53;55.13;102639.33;1641254;86;25994;-60
2022/03/11 01:47:37;;;;;;;;;;;;;;;-6.52;55.10;102640.64;1641146;86;25740;-60
2022/03/11 01:50:06;;;;;;;;;;;;;;;-6.52;55.14;102643.70;1641449;86;25810;-60
2022/03/11 01:52:32;;;;;;;;;;;;;;;-6.53;55.46;102647.19;1641018;86;26456;-60
2022/03/11 01:54:59;;;;;;;;;;;;;;;-6.56;55.45;102643.20;1641157;86;27482;-60
2022/03/11 01:57:26;;;;;;;;;;;;;;;-6.59;55.57;102642.73;1640937;86;25763;-60
2022/03/11 01:59:56;;;;;;;;;;;;;;;-6.59;55.35;102641.88;1641041;86;25727;-60
2022/03/11 02:02:25;;;;;;;;;;;;;;;-6.65;55.41;102643.53;1641185;86;25854;-60
2022/03/11 02:04:51;;;;;;;;;;;;;;;-6.69;55.34;102645.68;1706151;83;25720;-60
2022/03/11 02:07:20;;;;;;;;;;;;;;;-6.71;55.43;102644.77;1706138;83;28173;-60
2022/03/11 02:09:47;;;;;;;;;;;;;;;-6.72;55.64;102645.62;1706032;83;25808;-60
2022/03/11 02:12:32;;;;;;;;;;;;;;;-6.73;55.74;102647.79;1705930;83;25713;-60
2022/03/11 02:15:01;;;;;;;;;;;;;;;-6.75;55.59;102646.88;1705980;84;25797;-60
2022/03/11 02:17:28;;;;;;;;;;;;;;;-6.78;55.65;102645.55;1706063;83;25716;-60
2022/03/11 02:19:54;;;;;;;;;;;;;;;-6.78;55.90;102645.11;1706008;84;27519;-60
2022/03/11 02:22:23;;;;;;;;;;;;;;;-6.79;55.62;102639.42;1706061;83;25780;-61
2022/03/11 02:24:51;;;;;;;;;;;;;;;-6.81;55.71;102652.05;1706112;84;25736;-60
2022/03/11 02:27:19;;;;;;;;;;;;;;;-6.84;55.53;102640.21;1706185;83;26396;-60
2022/03/11 02:29:45;;;;;;;;;;;;;;;-6.85;55.40;102641.97;1706601;84;25624;-60
2022/03/11 02:32:12;;;;;;;;;;;;;;;-6.85;55.07;102631.91;1706070;84;28106;-60
2022/03/11 02:34:38;;;;;;;;;;;;;;;-6.87;54.82;102636.27;1706304;84;26336;-60
2022/03/11 02:37:05;;;;;;;;;;;;;;;-6.90;54.80;102634.91;1706150;84;25765;-60
2022/03/11 02:39:32;;;;;;;;;;;;;;;-6.93;54.60;102630.06;1706258;83;25842;-60
2022/03/11 02:42:00;;;;;;;;;;;;;;;-6.94;54.62;102636.59;1706088;84;25838;-60
2022/03/11 02:44:29;;;;;;;;;;;;;;;-6.96;54.39;102639.20;1682816;84;27485;-60
2022/03/11 02:46:59;;;;;;;;;;;;;;;-6.99;54.37;102638.28;1676263;84;25701;-60
2022/03/11 02:49:27;;;;;;;;;;;;;;;-7.01;54.20;102640.86;1676567;84;25856;-60
2022/03/11 02:51:56;;;;;;;;;;;;;;;-7.03;54.04;102636.47;1676162;85;26443;-60
2022/03/11 02:54:24;;;;;;;;;;;;;;;-7.05;54.11;102635.14;1676565;84;25763;-60
2022/03/11 02:56:51;;;;;;;;;;;;;;;-7.07;54.20;102630.31;1675993;85;27528;-59
2022/03/11 02:59:18;;;;;;;;;;;;;;;-7.08;54.19;102632.03;1683702;84;25774;-59
2022/03/11 03:01:45;;;;;;;;;;;;;;;-7.08;54.29;102620.26;1699205;84;25868;-59
2022/03/11 03:04:11;;;;;;;;;;;;;;;-7.06;54.21;102628.15;1684380;84;25832;-59
2022/03/11 03:06:38;;;;;;;;;;;;;;;-7.09;54.31;102626.78;1683580;84;25710;-59
2022/03/11 03:09:04;;;;;;;;;;;;;;;-7.10;54.23;102624.61;1683877;85;27522;-59
2022/03/11 03:11:31;;;;;;;;;;;;;;;-7.11;54.24;102635.93;1683456;84;25623;-59
2022/03/11 03:13:58;;;;;;;;;;;;;;;-7.11;54.18;102638.95;1684412;85;25693;-59
2022/03/11 03:16:24;;;;;;;;;;;;;;;-7.13;54.43;102635.46;1683684;85;26467;-59
2022/03/11 03:18:51;;;;;;;;;;;;;;;-7.11;54.42;102639.85;1696853;84;25912;-59
2022/03/11 03:21:18;;;;;;;;;;;;;;;-7.12;54.37;102635.89;1683451;85;27487;-60
2022/03/11 03:23:44;;;;;;;;;;;;;;;-7.13;54.48;102645.48;1683474;85;25774;-59
2022/03/11 03:26:11;;;;;;;;;;;;;;;-7.13;54.43;102635.02;1683269;85;25702;-60
2022/03/11 03:28:37;;;;;;;;;;;;;;;-7.11;54.36;102633.31;1684089;85;26286;-60
2022/03/11 03:31:06;;;;;;;;;;;;;;;-7.12;54.41;102638.09;1683535;84;26283;-60
2022/03/11 03:33:33;;;;;;;;;;;;;;;-7.10;54.52;102640.72;1683486;85;27548;-59
2022/03/11 03:36:00;;;;;;;;;;;;;;;-7.10;54.44;102643.34;1683526;84;25803;-60
2022/03/11 03:38:28;;;;;;;;;;;;;;;-7.11;54.38;102632.41;1683855;85;25781;-60
2022/03/11 03:40:54;;;;;;;;;;;;;;;-7.15;54.31;102635.86;1684633;85;25780;-60
2022/03/11 03:43:21;;;;;;;;;;;;;;;-7.16;54.26;102638.02;1662083;85;25713;-60
2022/03/11 03:45:47;;;;;;;;;;;;;;;-7.17;54.57;102638.43;1656028;86;28766;-60
2022/03/11 03:48:14;;;;;;;;;;;;;;;-7.21;54.66;102643.19;1656277;86;25726;-60
2022/03/11 03:50:41;;;;;;;;;;;;;;;-7.21;54.61;102646.20;1656132;86;25772;-60
2022/03/11 03:53:07;;;;;;;;;;;;;;;-7.20;54.82;102641.43;1656019;86;25806;-60
2022/03/11 03:55:34;;;;;;;;;;;;;;;-7.21;54.68;102645.80;1656294;86;25808;-60
2022/03/11 03:58:01;;;;;;;;;;;;;;;-7.22;54.72;102652.32;1662937;85;27398;-60
2022/03/11 04:00:29;;;;;;;;;;;;;;;-7.25;54.56;102646.18;1684002;85;25788;-58
2022/03/11 04:02:56;;;;;;;;;;;;;;;-7.25;54.60;102647.89;1683448;85;25782;-60
2022/03/11 04:05:22;;;;;;;;;;;;;;;-7.27;54.43;102656.17;1679052;84;25806;-60
2022/03/11 04:07:50;;;;;;;;;;;;;;;-7.27;54.43;102656.17;1680493;84;25786;-60
2022/03/11 04:10:21;;;;;;;;;;;;;;;-7.28;54.33;102651.80;1680426;85;27409;-60
2022/03/11 04:12:45;;;;;;;;;;;;;;;-7.26;54.19;102652.27;1688605;85;25742;-60
2022/03/11 04:15:12;;;;;;;;;;;;;;;-7.27;54.14;102656.17;1688941;84;25433;-60
2022/03/11 04:17:39;;;;;;;;;;;;;;;-7.27;54.09;102649.19;1689105;85;25777;-60
2022/03/11 04:20:07;;;;;;;;;;;;;;;-7.27;54.13;102653.11;1688893;84;25785;-60
2022/03/11 04:22:41;;;;;;;;;;;;;;;-7.29;54.04;102654.81;1689298;84;28386;-60
2022/03/11 04:25:11;;;;;;;;;;;;;;;-7.32;54.10;102658.71;1688832;85;25748;-60
2022/03/11 04:27:38;;;;;;;;;;;;;;;-7.33;54.08;102649.11;1689032;84;25800;-60
2022/03/11 04:30:06;;;;;;;;;;;;;;;-7.33;54.14;102650.82;1688967;84;25782;-60
2022/03/11 04:32:33;;;;;;;;;;;;;;;-7.30;54.24;102657.42;1689192;85;25900;-60
2022/03/11 04:35:00;;;;;;;;;;;;;;;-7.29;54.16;102657.88;1689189;84;27626;-60
2022/03/11 04:37:27;;;;;;;;;;;;;;;-7.30;54.05;102649.58;1689019;85;25986;-60
2022/03/11 04:39:53;;;;;;;;;;;;;;;-7.32;54.12;102649.97;1688988;84;25878;-60
2022/03/11 04:42:20;;;;;;;;;;;;;;;-7.33;54.20;102653.03;1696013;84;25820;-60
2022/03/11 04:44:46;;;;;;;;;;;;;;;-7.36;54.28;102655.58;1690201;83;27350;-60
2022/03/11 04:47:13;;;;;;;;;;;;;;;-7.36;54.16;102657.33;1688800;85;27403;-60
2022/03/11 04:49:39;;;;;;;;;;;;;;;-7.39;54.08;102658.13;1688894;84;25714;-60
2022/03/11 04:52:07;;;;;;;;;;;;;;;-7.40;54.14;102657.27;1688893;84;25470;-60
2022/03/11 04:54:33;;;;;;;;;;;;;;;-7.35;54.10;102657.78;1689146;84;26269;-60
2022/03/11 04:57:00;;;;;;;;;;;;;;;-7.37;54.08;102661.66;1689000;85;25784;-60
2022/03/11 04:59:28;;;;;;;;;;;;;;;-7.39;53.98;102659.03;1688894;84;27531;-60
2022/03/11 05:01:54;;;;;;;;;;;;;;;-7.37;53.93;102659.05;1688858;84;25821;-60
2022/03/11 05:04:21;;;;;;;;;;;;;;;-7.30;53.83;102659.59;1691822;83;25801;-60
2022/03/11 05:06:47;;;;;;;;;;;;;;;-7.27;53.71;102663.58;1673240;84;25796;-60
2022/03/11 05:09:14;;;;;;;;;;;;;;;-7.20;53.87;102661.95;1666020;85;25509;-60
2022/03/11 05:11:41;;;;;;;;;;;;;;;-7.14;53.55;102658.11;1660046;85;27873;-60
2022/03/11 05:14:07;;;;;;;;;;;;;;;-7.10;53.32;102655.11;1669059;85;25789;-60
2022/03/11 05:16:34;;;;;;;;;;;;;;;-7.05;53.42;102666.54;1666716;85;25721;-60
2022/03/11 05:19:00;;;;;;;;;;;;;;;-7.01;53.22;102659.17;1670228;85;25839;-60
2022/03/11 05:21:27;;;;;;;;;;;;;;;-6.97;52.99;102662.71;1667746;85;25774;-60
2022/03/11 05:23:54;;;;;;;;;;;;;;;-6.96;52.95;102664.47;1671054;85;28511;-60
2022/03/11 05:26:28;;;;;;;;;;;;;;;-6.89;52.78;102669.38;1670030;85;25719;-59
2022/03/11 05:29:00;;;;;;;;;;;;;;;-6.87;52.71;102659.81;1667268;84;25694;-59
2022/03/11 05:31:27;;;;;;;;;;;;;;;-6.85;52.31;102656.77;1667243;85;25952;-60
2022/03/11 05:33:55;;;;;;;;;;;;;;;-6.77;52.09;102661.27;1670176;85;25831;-60
2022/03/11 05:36:22;;;;;;;;;;;;;;;-6.71;51.98;102659.58;1662828;85;27482;-60
2022/03/11 05:38:49;;;;;;;;;;;;;;;-6.68;51.68;102657.88;1656241;86;25816;-60
2022/03/11 05:41:15;;;;;;;;;;;;;;;-6.59;51.78;102661.06;1656442;86;25781;-60
2022/03/11 05:43:42;;;;;;;;;;;;;;;-6.53;51.63;102667.69;1668797;85;25823;-60
2022/03/11 05:46:10;;;;;;;;;;;;;;;-6.46;50.94;102664.31;1668475;85;25711;-59
2022/03/11 05:48:36;;;;;;;;;;;;;;;-6.41;50.61;102669.61;1668707;85;27504;-59
2022/03/11 05:51:03;;;;;;;;;;;;;;;-6.36;50.69;102670.53;1668742;85;25783;-59
2022/03/11 05:53:29;;;;;;;;;;;;;;;-6.30;50.18;102667.11;1670282;85;26471;-59
2022/03/11 05:55:56;;;;;;;;;;;;;;;-6.22;50.21;102659.33;1669936;85;26495;-59
2022/03/11 05:58:22;;;;;;;;;;;;;;;-6.12;49.82;102658.58;1668882;85;25826;-59
2022/03/11 06:00:49;;;;;;;;;;;;;;;-6.00;49.87;102663.96;1667700;84;27603;-59
2022/03/11 06:03:17;;;;;;;;;;;;;;;-5.89;49.98;102662.72;1669774;85;25785;-59
2022/03/11 06:05:44;;;;;;;;;;;;;;;-5.76;49.43;102652.38;1674837;84;25940;-59
2022/03/11 06:08:11;;;;;;;;;;;;;;;-5.71;48.80;102652.88;1696720;84;25794;-59
2022/03/11 06:10:38;;;;;;;;;;;;;;;-5.61;48.41;102651.64;1696610;84;25784;-58
2022/03/11 06:13:04;;;;;;;;;;;;;;;-5.56;48.36;102656.48;1695526;84;27498;-59
2022/03/11 06:15:31;;;;;;;;;;;;;;;-5.58;47.85;102662.14;1696759;84;25928;-59
2022/03/11 06:17:58;;;;;;;;;;;;;;;-5.53;48.18;102664.39;1696805;84;25748;-60
2022/03/11 06:20:28;;;;;;;;;;;;;;;-5.52;47.97;102661.77;1695574;84;25802;-58
2022/03/11 06:22:54;;;;;;;;;;;;;;;-5.46;47.97;102662.67;1696819;84;25428;-58
2022/03/11 06:25:20;;;;;;;;;;;;;;;-5.42;47.52;102664.03;1702654;83;28334;-59
2022/03/11 06:27:47;;;;;;;;;;;;;;;-5.41;47.31;102661.86;1703404;82;25646;-59
2022/03/11 06:30:14;;;;;;;;;;;;;;;-5.36;47.02;102652.30;1703382;83;25760;-59
2022/03/11 06:32:42;;;;;;;;;;;;;;;-5.31;47.84;102659.31;1703602;83;25662;-59
2022/03/11 06:35:11;;;;;;;;;;;;;;;-5.18;47.91;102659.86;1679548;84;25842;-59
2022/03/11 06:37:37;;;;;;;;;;;;;;;-5.05;47.16;102663.45;1674048;85;28209;-59
2022/03/11 06:40:06;;;;;;;;;;;;;;;-4.98;46.93;102656.06;1673644;84;25465;-59
2022/03/11 06:42:39;;;;;;;;;;;;;;;-4.88;46.94;102653.94;1665818;85;25730;-59
2022/03/11 06:45:08;;;;;;;;;;;;;;;-4.83;46.57;102657.02;1675699;85;25832;-59
2022/03/11 06:47:35;;;;;;;;;;;;;;;-4.84;46.43;102650.90;1675705;85;25783;-59
2022/03/11 06:50:02;;;;;;;;;;;;;;;-4.78;46.97;102656.17;1676069;85;28205;-59
2022/03/11 06:52:29;;;;;;;;;;;;;;;-4.69;46.43;102642.23;1675577;85;25818;-59
2022/03/11 06:54:56;;;;;;;;;;;;;;;-4.60;46.54;102650.16;1675848;85;25772;-59
2022/03/11 06:57:23;;;;;;;;;;;;;;;-4.50;45.85;102648.44;1675801;85;25686;-59
2022/03/11 06:59:50;;;;;;;;;;;;;;;-4.47;45.61;102637.95;1675727;85;25767;-58
2022/03/11 07:02:18;;;;;;;;;;;;;;;-4.51;44.77;102630.05;1675667;85;27614;-59
2022/03/11 07:04:45;;;;;;;;;;;;;;;-4.38;43.50;102625.27;1675791;85;25704;-58
2022/03/11 07:07:11;;;;;;;;;;;;;;;-4.41;43.70;102626.60;1684066;83;25784;-57
2022/03/11 07:09:38;;;;;;;;;;;;;;;-4.35;43.94;102618.73;1688513;84;25809;-58
2022/03/11 07:12:06;;;;;;;;;;;;;;;-4.30;43.48;102622.69;1688522;84;25828;-58
2022/03/11 07:14:35;;;;;;;;;;;;;;;-4.23;42.81;102614.39;1688440;84;27479;-58
2022/03/11 07:17:03;;;;;;;;;;;;;;;-4.22;43.02;102606.50;1700935;83;25515;-58
2022/03/11 07:19:30;;;;;;;;;;;;;;;-4.20;42.72;102617.91;1707639;83;25815;-58
2022/03/11 07:21:58;;;;;;;;;;;;;;;-4.15;42.92;102604.77;1719668;83;27107;-58
2022/03/11 07:24:25;;;;;;;;;;;;;;;-4.05;42.75;102604.34;1701483;83;25818;-58
2022/03/11 07:26:54;;;;;;;;;;;;;;;-3.91;41.85;102589.48;1685958;83;27986;-59
2022/03/11 07:29:20;;;;;;;;;;;;;;;-3.86;41.72;102598.70;1698288;83;25788;-58
2022/03/11 07:31:47;;;;;;;;;;;;;;;-3.80;41.73;102594.30;1692203;83;25730;-58
2022/03/11 07:34:15;;;;;;;;;;;;;;;-3.72;41.52;102589.50;1685560;84;25773;-58
2022/03/11 07:36:41;;;;;;;;;;;;;;;-3.67;41.29;102583.80;1679441;84;26319;-58
2022/03/11 07:39:10;;;;;;;;;;;;;;;-3.66;40.87;102582.47;1682030;84;27511;-58
2022/03/11 07:41:37;;;;;;;;;;;;;;;-3.63;40.05;102574.59;1683449;84;25904;-58
2022/03/11 07:44:05;;;;;;;;;;;;;;;-3.64;39.80;102572.83;1686192;83;25756;-58
2022/03/11 07:46:33;;;;;;;;;;;;;;;-3.68;40.11;102574.14;1687600;84;26782;-58
2022/03/11 07:49:01;;;;;;;;;;;;;;;-3.62;40.17;102568.87;1689327;84;25750;-58
2022/03/11 07:51:29;;;;;;;;;;;;;;;-3.58;39.27;102564.06;1676589;84;27412;-58
2022/03/11 07:53:58;;;;;;;;;;;;;;;-3.44;39.42;102565.78;1683630;85;25667;-58
2022/03/11 07:56:25;;;;;;;;;;;;;;;-3.28;39.60;102558.75;1705800;83;25805;-58
2022/03/11 07:58:54;;;;;;;;;;;;;;;-3.13;38.31;102558.70;1704680;83;25759;-58
2022/03/11 08:01:21;;;;;;;;;;;;;;;-3.02;38.91;102558.70;1658799;86;25743;-57
2022/03/11 08:03:48;;;;;;;;;;;;;;;-3.01;38.10;102540.25;1703136;84;28100;-58
2022/03/11 08:06:15;;;;;;;;;;;;;;;-2.93;38.11;102539.34;1697526;84;25781;-58
2022/03/11 08:08:43;;;;;;;;;;;;;;;-2.99;36.82;102535.86;1656206;85;25816;-58
2022/03/11 08:11:11;;;;;;;;;;;;;;;-2.92;37.68;102532.78;1659994;85;26532;-58
2022/03/11 08:13:38;;;;;;;;;;;;;;;-2.85;37.34;102536.23;1659714;84;25505;-58
2022/03/11 08:16:04;;;;;;;;;;;;;;;-2.85;37.22;102530.55;1658367;86;27508;-58
2022/03/11 08:18:31;;;;;;;;;;;;;;;-2.73;36.52;102532.25;1660265;86;25526;-58
2022/03/11 08:20:58;;;;;;;;;;;;;;;-2.63;36.45;102527.80;1659751;85;25798;-57
2022/03/11 08:23:25;;;;;;;;;;;;;;;-2.55;37.48;102530.40;1659020;86;26461;-58
2022/03/11 08:25:52;;;;;;;;;;;;;;;-2.41;36.95;102532.50;1655341;85;26323;-58
2022/03/11 08:28:21;;;;;;;;;;;;;;;-2.37;36.40;102531.61;1659616;86;27413;-57
2022/03/11 08:30:47;;;;;;;;;;;;;;;-2.35;36.01;102526.32;1659606;86;26016;-57
2022/03/11 08:33:20;;;;;;;;;;;;;;;-2.30;36.11;102529.82;1659320;85;25693;-57
2022/03/11 08:35:44;;;;;;;;;;;;;;;-2.30;36.28;102521.91;1658466;85;25770;-58
2022/03/11 08:38:11;;;;;;;;;;;;;;;-2.17;36.07;102527.08;1651190;86;25849;-58
2022/03/11 08:40:37;;;;;;;;;;;;;;;-2.13;35.89;102523.09;1655701;86;27507;-58
2022/03/11 08:43:04;;;;;;;;;;;;;;;-2.08;35.27;102528.34;1661273;84;25797;-58
2022/03/11 08:45:32;;;;;;;;;;;;;;;-1.94;34.35;102527.80;1659365;86;25824;-58
2022/03/11 08:47:59;;;;;;;;;;;;;;;-1.86;33.81;102534.31;1655155;85;25921;-58
2022/03/11 08:50:25;;;;;;;;;;;;;;;-1.82;33.99;102514.06;1656562;86;25870;-57
2022/03/11 08:52:53;;;;;;;;;;;;;;;-1.71;33.62;102510.89;1658060;85;27907;-58
2022/03/11 08:55:20;;;;;;;;;;;;;;;-1.61;33.13;102507.70;1658751;86;25689;-58
2022/03/11 08:57:51;;;;;;;;;;;;;;;-1.54;33.66;102501.93;1658371;86;25794;-58
2022/03/11 09:00:20;;;;;;;;;;;;;;;-1.39;32.63;102505.72;1658968;86;25814;-57
2022/03/11 09:02:48;;;;;;;;;;;;;;;-1.28;34.21;102505.16;1654194;86;25977;-58
2022/03/11 09:05:17;;;;;;;;;;;;;;;-1.17;32.06;102493.61;1655871;85;27518;-58
2022/03/11 09:07:48;;;;;;;;;;;;;;;-1.09;31.60;102500.14;1641973;85;25872;-58
2022/03/11 09:10:18;;;;;;;;;;;;;;;-1.14;32.05;102485.20;1660158;85;25833;-57
2022/03/11 09:12:46;;;;;;;;;;;;;;;-1.04;32.29;102493.91;1653009;85;25795;-57
2022/03/11 09:15:14;;;;;;;;;;;;;;;-0.90;32.77;102485.81;1632353;87;25969;-56
2022/03/11 09:17:44;;;;;;;;;;;;;;;-0.74;31.15;102485.59;1638643;87;27889;-57
2022/03/11 09:20:12;;;;;;;;;;;;;;;-0.70;31.42;102492.14;1639671;86;26859;-57
2022/03/11 09:22:40;;;;;;;;;;;;;;;-0.62;30.74;102477.48;1641960;86;25726;-57
2022/03/11 09:25:09;;;;;;;;;;;;;;;-0.65;30.70;102483.69;1642052;87;26380;-57
2022/03/11 09:27:36;;;;;;;;;;;;;;;-0.46;31.46;102478.14;1641871;87;25472;-58
2022/03/11 09:30:05;;;;;;;;;;;;;;;-0.33;31.39;102477.50;1642035;87;28241;-57
2022/03/11 09:32:32;;;;;;;;;;;;;;;-0.20;30.59;102466.28;1644355;86;26163;-57
2022/03/11 09:34:59;;;;;;;;;;;;;;;-0.16;29.89;102476.78;1645232;87;25795;-57
2022/03/11 09:37:27;;;;;;;;;;;;;;;-0.01;30.40;102467.73;1645164;86;25813;-57
2022/03/11 09:39:54;;;;;;;;;;;;;;;0.12;29.85;102473.67;1645171;85;25799;-57
2022/03/11 09:42:21;;;;;;;;;;;;;;;0.20;29.94;102462.97;1642093;87;27612;-56
2022/03/11 09:44:51;;;;;;;;;;;;;;;0.14;28.87;102460.41;1651317;85;26360;-57
2022/03/11 09:47:19;;;;;;;;;;;;;;;0.14;29.63;102459.08;1650539;86;25647;-58
2022/03/11 09:49:51;;;;;;;;;;;;;;;0.17;28.91;102455.53;1651774;85;26497;-58
2022/03/11 09:52:20;;;;;;;;;;;;;;;0.18;28.94;102459.94;1648390;86;25785;-58
2022/03/11 09:54:47;;;;;;;;;;;;;;;0.29;29.12;102455.30;1659052;85;27413;-58
2022/03/11 09:57:22;;;;;;;;;;;;;;;0.31;28.17;102452.17;1643057;85;25550;-57
2022/03/11 09:59:48;;;;;;;;;;;;;;;0.34;27.11;102449.48;1622011;86;25839;-58
2022/03/11 10:02:16;;;;;;;;;;;;;;;0.31;27.47;102448.20;1652037;87;25823;-57
2022/03/11 10:04:51;;;;;;;;;;;;;;;0.40;27.93;102441.88;1644915;86;25746;-57
2022/03/11 10:07:26;;;;;;;;;;;;;;;0.46;27.16;102443.08;1639990;84;27373;-57
2022/03/11 10:09:56;;;;;;;;;;;;;;;0.29;27.30;102449.56;1649126;86;25817;-56
2022/03/11 10:12:27;;;;;;;;;;;;;;;0.19;27.57;102435.18;1629450;87;25770;-57
2022/03/11 10:15:00;;;;;;;;;;;;;;;0.03;27.57;102449.16;1649317;86;27027;-58
2022/03/11 10:17:30;;;;;;;;;;;;;;;-0.05;28.16;102434.73;1649235;86;26184;-58
2022/03/11 10:20:02;;;;;;;;;;;;;;;0.02;28.08;102448.27;1649229;87;27500;-58
2022/03/11 10:22:30;;;;;;;;;;;;;;;-0.06;28.47;102447.10;1649625;87;25969;-57
2022/03/11 10:24:58;;;;;;;;;;;;;;;-0.13;28.22;102437.49;1649510;86;25890;-57
2022/03/11 10:27:25;;;;;;;;;;;;;;;-0.17;28.06;102447.72;1649486;87;26006;-57
2022/03/11 10:29:55;;;;;;;;;;;;;;;-0.14;29.05;102442.39;1649483;86;25793;-58
2022/03/11 10:32:24;;;;;;;;;;;;;;;-0.01;29.24;102443.05;1649479;85;27496;-57
2022/03/11 10:34:50;;;;;;;;;;;;;;;0.05;30.71;102439.39;1649303;86;25527;-57
2022/03/11 10:37:17;;;;;;;;;;;;;;;0.08;29.89;102428.77;1649275;86;25697;-57
2022/03/11 10:39:46;;;;;;;;;;;;;;;0.14;29.67;102436.59;1649332;86;25813;-58
2022/03/11 10:42:16;;;;;;;;;;;;;;;0.20;29.53;102447.09;1656283;85;26448;-57
2022/03/11 10:45:03;;;;;;;;;;;;;;;0.36;29.74;102434.41;1651430;86;28244;-58
2022/03/11 10:47:38;;;;;;;;;;;;;;;0.31;29.61;102439.80;1649075;86;25765;-58
2022/03/11 10:50:07;;;;;;;;;;;;;;;0.20;28.91;102434.28;1649666;86;25801;-58
2022/03/11 10:52:43;;;;;;;;;;;;;;;0.22;29.13;102435.13;1648803;86;26758;-58
2022/03/11 10:55:27;;;;;;;;;;;;;;;0.17;30.62;102427.75;1649717;86;25836;-58
2022/03/11 10:57:58;;;;;;;;;;;;;;;0.06;30.04;102439.39;1652228;86;27518;-57
2022/03/11 11:00:33;;;;;;;;;;;;;;;-0.02;30.63;102428.07;1670100;84;25770;-57
2022/03/11 11:03:03;;;;;;;;;;;;;;;-0.10;31.22;102429.52;1670808;84;25757;-56
2022/03/11 11:05:31;;;;;;;;;;;;;;;-0.01;30.24;102436.44;1669866;85;25785;-58
2022/03/11 11:07:59;;;;;;;;;;;;;;;-0.02;30.81;102438.19;1673164;83;26581;-57
2022/03/11 11:10:29;;;;;;;;;;;;;;;-0.01;30.58;102424.06;1700277;83;27468;-57
2022/03/11 11:12:56;;;;;;;;;;;;;;;-0.17;30.56;102415.52;1694703;83;25479;-57
2022/03/11 11:15:24;;;;;;;;;;;;;;;-0.13;31.36;102427.38;1693572;83;25747;-58
2022/03/11 11:17:52;;;;;;;;;;;;;;;-0.09;31.29;102411.42;1699271;82;25804;-58
2022/03/11 11:20:22;;;;;;;;;;;;;;;-0.05;31.79;102418.86;1684520;85;25789;-57
2022/03/11 11:22:51;;;;;;;;;;;;;;;0.13;30.72;102409.73;1685450;83;27877;-56
2022/03/11 11:25:20;;;;;;;;;;;;;;;0.29;31.01;102412.94;1697963;83;25821;-57
2022/03/11 11:27:48;;;;;;;;;;;;;;;0.30;31.20;102414.25;1692083;83;25653;-57
2022/03/11 11:30:18;;;;;;;;;;;;;;;0.22;31.38;102421.91;1684554;85;25763;-58
2022/03/11 11:32:46;;;;;;;;;;;;;;;0.13;31.43;102391.20;1688125;83;25462;-58
2022/03/11 11:35:28;;;;;;;;;;;;;;;0.03;30.97;102416.09;1691905;83;27474;-58
2022/03/11 11:37:57;;;;;;;;;;;;;;;0.00;31.18;102397.17;1683610;83;25813;-57
2022/03/11 11:40:34;;;;;;;;;;;;;;;-0.04;31.73;102391.50;1683445;85;25825;-57
2022/03/11 11:43:17;;;;;;;;;;;;;;;-0.02;32.09;102401.15;1683887;84;25873;-57
2022/03/11 11:45:46;;;;;;;;;;;;;;;0.00;32.44;102397.17;1684408;85;25775;-60
2022/03/11 11:48:41;;;;;;;;;;;;;;;-0.04;32.64;102396.80;1684328;83;27493;-57
2022/03/11 11:51:07;;;;;;;;;;;;;;;0.03;32.36;102388.30;1683961;83;25735;-58
2022/03/11 11:53:52;;;;;;;;;;;;;;;0.01;31.52;102375.55;1687742;83;25767;-58
2022/03/11 11:57:00;;;;;;;;;;;;;;;-0.07;31.40;102376.56;1686135;83;25866;-58
2022/03/11 11:59:29;;;;;;;;;;;;;;;-0.04;32.54;102380.92;1683144;85;25756;-58
2022/03/11 12:01:57;;;;;;;;;;;;;;;-0.11;32.03;102381.47;1683203;84;27646;-58
2022/03/11 12:04:35;;;;;;;;;;;;;;;-0.18;32.59;102378.05;1682431;85;25828;-58
2022/03/11 12:07:17;;;;;;;;;;;;;;;-0.22;32.30;102390.04;1683211;84;26119;-58
2022/03/11 12:10:04;;;;;;;;;;;;;;;-0.36;32.87;102370.01;1677041;84;25842;-57
2022/03/11 12:12:24;;;;;;;;;;;;;;;-0.35;33.27;102387.62;1678179;84;25726;-57
2022/03/11 12:15:04;;;;;;;;;;;;;;;-0.31;33.65;102392.41;1657757;86;28163;-58
2022/03/11 12:17:56;;;;;;;;;;;;;;;-0.21;33.70;102389.14;1657683;86;25797;-58
2022/03/11 12:20:45;;;;;;;;;;;;;;;-0.26;33.82;102386.58;1657570;86;25772;-58
2022/03/11 12:23:19;;;;;;;;;;;;;;;-0.29;34.01;102393.69;1657456;86;25935;-59
2022/03/11 12:26:02;;;;;;;;;;;;;;;-0.30;33.02;102379.61;1657828;86;25863;-58
2022/03/11 12:28:28;;;;;;;;;;;;;;;-0.23;32.98;102385.67;1657353;86;27511;-59
2022/03/11 12:30:58;;;;;;;;;;;;;;;-0.20;33.35;102387.81;1657742;86;26576;-58
2022/03/11 12:33:34;;;;;;;;;;;;;;;-0.06;33.63;102395.94;1657176;86;25760;-57
2022/03/11 12:36:02;;;;;;;;;;;;;;;0.06;32.92;102391.77;1660346;86;26514;-57
2022/03/11 12:38:34;;;;;;;;;;;;;;;0.18;32.63;102397.27;1655503;84;26881;-57
2022/03/11 12:41:03;;;;;;;;;;;;;;;0.23;31.95;102398.04;1684012;85;27477;-57
2022/03/11 12:43:30;;;;;;;;;;;;;;;0.27;31.96;102401.53;1696713;83;25640;-58
2022/03/11 12:45:58;;;;;;;;;;;;;;;0.24;31.39;102399.79;1682833;84;25496;-57